Time;durP1;ratioP1;P1;durP2;ratioP2;P2;SDS_P1;SDS_P2;PMS_P1;PMS_P2;Temp;Humidity;BMP_temperature;BMP_pressure;BME280_temperature;BME280_humidity;BME280_pressure;Samples;Min_cycle;Max_cycle;Signal;HPM_P1;HPM_P2
2022/05/30 00:01:54;;;;;;;0.57;0.57;;;18.30;55.70;;;;;;5080517;28;21294;-47
2022/05/30 00:04:36;;;;;;;1.03;0.80;;;18.30;55.60;;;;;;5094617;27;20545;-47
2022/05/30 00:07:16;;;;;;;1.10;0.70;;;18.30;55.60;;;;;;5075276;28;20593;-48
2022/05/30 00:09:59;;;;;;;0.60;0.60;;;18.30;55.70;;;;;;5068345;28;20979;-49
2022/05/30 00:12:39;;;;;;;0.87;0.67;;;18.30;55.70;;;;;;5118545;27;20596;-49
2022/05/30 00:15:23;;;;;;;0.70;0.60;;;18.30;55.80;;;;;;5084146;27;20624;-48
2022/05/30 00:18:09;;;;;;;1.10;0.60;;;18.30;55.60;;;;;;5121337;27;20541;-48
2022/05/30 00:20:50;;;;;;;1.13;0.77;;;18.30;55.70;;;;;;5061696;27;21055;-46
2022/05/30 00:23:32;;;;;;;0.70;0.60;;;18.30;55.70;;;;;;5081624;27;20527;-47
2022/05/30 00:26:13;;;;;;;0.77;0.70;;;18.30;55.70;;;;;;5099926;27;20518;-47
2022/05/30 00:28:54;;;;;;;1.83;0.73;;;18.30;55.70;;;;;;5100907;27;20530;-47
2022/05/30 00:31:35;;;;;;;1.07;0.83;;;18.30;55.80;;;;;;5081442;28;20579;-48
2022/05/30 00:34:17;;;;;;;1.07;0.73;;;18.30;55.70;;;;;;5113997;27;20546;-49
2022/05/30 00:37:00;;;;;;;0.70;0.70;;;18.30;55.80;;;;;;5066166;28;20943;-47
2022/05/30 00:39:40;;;;;;;0.60;0.60;;;18.30;55.80;;;;;;5091682;27;20613;-49
2022/05/30 00:42:31;;;;;;;0.50;0.50;;;18.30;55.80;;;;;;5100133;27;20983;-49
2022/05/30 00:45:12;;;;;;;0.70;0.60;;;18.30;55.90;;;;;;5065281;28;20549;-49
2022/05/30 00:47:53;;;;;;;0.97;0.60;;;18.30;55.80;;;;;;5121099;27;20981;-49
2022/05/30 00:50:33;;;;;;;1.03;0.63;;;18.30;55.80;;;;;;5058480;27;20604;-47
2022/05/30 00:53:18;;;;;;;0.63;0.63;;;18.20;55.80;;;;;;5080521;28;20581;-47
2022/05/30 00:55:59;;;;;;;0.93;0.83;;;18.20;55.80;;;;;;5099453;27;20611;-47
2022/05/30 00:58:45;;;;;;;0.90;0.60;;;18.20;55.80;;;;;;5069930;27;20544;-47
2022/05/30 01:01:25;;;;;;;0.93;0.70;;;18.20;55.80;;;;;;5081095;28;20578;-47
2022/05/30 01:07:09;;;;;;;1.07;0.97;;;18.20;55.90;;;;;;5073020;28;20552;-47
2022/05/30 01:09:54;;;;;;;0.70;0.67;;;18.20;55.80;;;;;;5069347;28;20532;-48
2022/05/30 01:12:39;;;;;;;0.90;0.80;;;18.20;55.80;;;;;;5078718;28;21070;-50
2022/05/30 01:15:23;;;;;;;2.97;0.80;;;18.20;55.80;;;;;;5065442;27;20532;-48
2022/05/30 01:18:13;;;;;;;0.90;0.70;;;18.20;55.90;;;;;;5079033;28;20589;-47
2022/05/30 01:21:04;;;;;;;0.60;0.40;;;18.20;55.90;;;;;;5056369;28;20899;-47
2022/05/30 01:23:58;;;;;;;1.77;0.90;;;18.20;55.90;;;;;;5076448;27;20519;-48
2022/05/30 01:27:12;;;;;;;1.17;0.80;;;18.20;55.90;;;;;;5119348;27;21253;-46
2022/05/30 01:30:03;;;;;;;0.90;0.70;;;18.20;55.90;;;;;;5086469;27;20548;-48
2022/05/30 01:32:51;;;;;;;2.87;0.90;;;18.10;55.70;;;;;;5081267;28;20519;-48
2022/05/30 01:35:32;;;;;;;1.03;0.90;;;18.10;55.80;;;;;;5063233;28;20594;-48
2022/05/30 01:38:17;;;;;;;0.60;0.60;;;18.10;55.70;;;;;;5044079;28;20631;-50
2022/05/30 01:41:04;;;;;;;1.00;0.70;;;18.10;55.80;;;;;;5081090;28;20528;-48
2022/05/30 01:43:46;;;;;;;1.00;0.60;;;18.10;55.80;;;;;;5106983;27;20530;-47
2022/05/30 01:46:26;;;;;;;0.90;0.77;;;18.10;55.80;;;;;;5100878;27;20584;-49
2022/05/30 01:49:14;;;;;;;1.33;0.80;;;18.10;55.80;;;;;;5088762;27;20603;-47
2022/05/30 01:51:57;;;;;;;0.97;0.57;;;18.10;55.80;;;;;;5071691;27;20544;-47
2022/05/30 01:54:38;;;;;;;1.03;0.80;;;18.10;55.80;;;;;;5070711;28;20544;-49
2022/05/30 01:57:34;;;;;;;1.10;0.73;;;18.10;55.90;;;;;;5119397;27;20533;-49
2022/05/30 02:00:43;;;;;;;1.90;0.70;;;18.10;55.90;;;;;;4967154;28;20548;-49
2022/05/30 02:03:23;;;;;;;1.00;0.67;;;18.10;55.80;;;;;;5128499;27;20579;-47
2022/05/30 02:06:04;;;;;;;2.20;0.73;;;18.10;55.80;;;;;;5084617;28;20524;-49
2022/05/30 02:08:48;;;;;;;0.60;0.50;;;18.00;55.70;;;;;;5121857;27;20603;-48
2022/05/30 02:11:30;;;;;;;1.37;0.60;;;18.10;55.80;;;;;;5128234;27;20517;-49
2022/05/30 02:14:31;;;;;;;0.80;0.60;;;18.00;55.70;;;;;;5072138;28;20590;-47
2022/05/30 02:17:12;;;;;;;1.53;0.70;;;18.00;55.80;;;;;;5081502;28;20587;-47
2022/05/30 02:19:56;;;;;;;1.30;0.70;;;18.00;55.80;;;;;;5093181;27;20613;-47
2022/05/30 02:22:44;;;;;;;0.77;0.77;;;18.00;55.80;;;;;;5073778;27;20560;-48
2022/05/30 02:25:24;;;;;;;1.17;0.83;;;18.00;55.80;;;;;;5070428;28;20611;-49
2022/05/30 02:28:05;;;;;;;1.00;0.70;;;18.00;55.80;;;;;;5077366;27;20607;-47
2022/05/30 02:30:48;;;;;;;0.83;0.60;;;18.00;55.90;;;;;;5088691;27;20612;-46
2022/05/30 02:36:41;;;;;;;1.10;0.70;;;18.00;55.90;;;;;;5087547;28;20516;-49
2022/05/30 02:39:25;;;;;;;0.60;0.60;;;18.00;55.90;;;;;;5034401;27;20631;-47
2022/05/30 02:42:29;;;;;;;1.47;0.60;;;18.00;55.80;;;;;;5074343;28;20633;-46
2022/05/30 02:45:12;;;;;;;1.27;1.10;;;18.00;55.80;;;;;;5072130;28;20541;-47
2022/05/30 02:47:53;;;;;;;1.00;0.60;;;17.90;55.70;;;;;;5079708;28;20583;-48
2022/05/30 02:50:33;;;;;;;0.93;0.80;;;18.00;55.90;;;;;;5077199;27;20609;-47
2022/05/30 02:53:16;;;;;;;1.13;0.90;;;17.90;55.70;;;;;;5127270;27;20927;-46
2022/05/30 02:56:27;;;;;;;1.90;0.80;;;17.90;55.70;;;;;;5106724;27;20526;-47
2022/05/30 02:59:08;;;;;;;1.63;0.70;;;17.90;55.80;;;;;;5076016;28;21122;-47
2022/05/30 03:01:54;;;;;;;1.67;0.80;;;17.90;55.80;;;;;;5086095;28;20519;-47
2022/05/30 03:04:35;;;;;;;1.60;0.77;;;17.90;55.80;;;;;;5090617;27;21135;-51
2022/05/30 03:07:20;;;;;;;0.80;0.80;;;17.90;55.80;;;;;;5113120;27;20553;-49
2022/05/30 03:10:02;;;;;;;0.90;0.77;;;17.90;55.90;;;;;;5069212;27;20544;-48
2022/05/30 03:13:03;;;;;;;3.30;0.80;;;17.90;55.80;;;;;;5075005;27;20612;-47
2022/05/30 03:15:43;;;;;;;0.90;0.80;;;17.90;55.90;;;;;;5062512;27;20614;-46
2022/05/30 03:18:26;;;;;;;1.43;0.90;;;17.90;55.80;;;;;;5069110;28;20529;-48
2022/05/30 03:21:08;;;;;;;0.80;0.63;;;17.90;57.00;;;;;;5072753;27;21121;-48
2022/05/30 03:23:50;;;;;;;0.70;0.70;;;17.90;55.80;;;;;;5107265;27;21109;-49
2022/05/30 03:26:42;;;;;;;2.13;0.70;;;17.90;55.90;;;;;;5081943;28;20523;-47
2022/05/30 03:29:22;;;;;;;1.23;0.80;;;17.90;55.80;;;;;;5043212;28;21128;-49
2022/05/30 03:32:04;;;;;;;1.10;1.00;;;17.90;55.80;;;;;;5123034;27;20569;-48
2022/05/30 03:34:44;;;;;;;1.17;0.80;;;17.80;55.70;;;;;;5070569;27;20541;-49
2022/05/30 03:37:26;;;;;;;2.50;0.60;;;17.80;55.80;;;;;;5077598;27;21124;-50
2022/05/30 03:40:25;;;;;;;1.03;0.70;;;17.80;55.80;;;;;;5056108;27;20643;-48
2022/05/30 03:43:46;;;;;;;1.00;0.93;;;17.80;55.70;;;;;;5073777;28;20535;-50
2022/05/30 03:46:29;;;;;;;1.33;0.93;;;17.80;55.70;;;;;;5060617;28;20943;-49
2022/05/30 03:49:11;;;;;;;1.23;0.90;;;17.80;55.80;;;;;;5074391;28;20544;-46
2022/05/30 03:51:52;;;;;;;2.70;0.77;;;17.80;55.70;;;;;;5116226;27;20529;-50
2022/05/30 03:54:32;;;;;;;0.87;0.57;;;17.80;55.80;;;;;;5097354;27;20552;-48
2022/05/30 03:57:14;;;;;;;1.47;0.80;;;17.80;55.80;;;;;;5122604;27;20598;-45
2022/05/30 03:59:55;;;;;;;1.20;0.80;;;17.80;55.70;;;;;;5061608;27;20562;-47
2022/05/30 04:02:36;;;;;;;1.03;0.50;;;17.80;55.80;;;;;;5122583;27;20517;-49
2022/05/30 04:05:22;;;;;;;0.83;0.70;;;17.80;55.80;;;;;;5062830;27;20669;-47
2022/05/30 04:08:05;;;;;;;0.90;0.60;;;17.80;55.80;;;;;;5081746;27;20680;-48
2022/05/30 04:10:49;;;;;;;1.00;0.80;;;17.80;55.90;;;;;;5046934;27;20597;-48
2022/05/30 04:13:33;;;;;;;0.70;0.70;;;17.70;55.90;;;;;;5076514;28;20894;-48
2022/05/30 04:16:28;;;;;;;1.00;0.90;;;17.70;55.70;;;;;;5081424;27;20973;-49
2022/05/30 04:19:15;;;;;;;0.80;0.60;;;17.70;55.80;;;;;;5106861;27;20595;-48
2022/05/30 04:22:00;;;;;;;1.43;0.87;;;17.70;55.80;;;;;;5120375;27;20579;-47
2022/05/30 04:24:48;;;;;;;1.50;0.90;;;17.70;55.70;;;;;;5091551;27;20541;-47
2022/05/30 04:27:29;;;;;;;1.33;0.60;;;17.70;55.80;;;;;;5076313;27;20540;-48
2022/05/30 04:30:11;;;;;;;2.50;0.70;;;17.70;55.70;;;;;;5075618;27;20552;-48
2022/05/30 04:32:59;;;;;;;1.23;0.73;;;17.70;55.70;;;;;;5121446;27;20541;-47
2022/05/30 04:35:43;;;;;;;0.70;0.70;;;17.70;55.80;;;;;;5063153;27;20540;-48
2022/05/30 04:38:24;;;;;;;1.27;0.70;;;17.70;55.80;;;;;;5060811;27;20571;-48
2022/05/30 04:41:25;;;;;;;1.00;0.90;;;17.70;55.90;;;;;;5122457;27;20528;-50
2022/05/30 04:44:25;;;;;;;0.70;0.70;;;17.70;55.80;;;;;;5039821;27;20583;-48
2022/05/30 04:47:17;;;;;;;1.00;0.80;;;17.70;55.90;;;;;;5082235;28;20516;-47
2022/05/30 04:50:01;;;;;;;1.10;0.80;;;17.70;55.90;;;;;;5069103;27;20540;-47
2022/05/30 04:52:43;;;;;;;0.70;0.70;;;17.70;55.90;;;;;;4991758;27;20583;-47
2022/05/30 04:55:56;;;;;;;2.00;0.90;;;17.70;56.00;;;;;;5060183;27;20549;-46
2022/05/30 04:58:51;;;;;;;1.10;0.63;;;17.70;55.90;;;;;;5064142;27;20582;-48
2022/05/30 05:01:35;;;;;;;0.70;0.60;;;17.60;55.80;;;;;;5122890;27;20988;-47
2022/05/30 05:04:18;;;;;;;1.17;0.70;;;17.60;55.90;;;;;;5089407;27;20598;-49
2022/05/30 05:06:59;;;;;;;0.93;0.77;;;17.60;55.80;;;;;;5115366;27;21182;-48
2022/05/30 05:09:52;;;;;;;0.90;0.77;;;17.60;55.90;;;;;;5072162;28;20916;-47
2022/05/30 05:12:56;;;;;;;0.80;0.60;;;17.60;55.80;;;;;;5137446;27;20534;-50
2022/05/30 05:16:00;;;;;;;1.20;1.10;;;17.60;55.90;;;;;;5060155;27;20572;-51
2022/05/30 05:18:47;;;;;;;0.90;0.77;;;17.60;55.90;;;;;;5063568;28;20542;-49
2022/05/30 05:21:29;;;;;;;0.70;0.70;;;17.60;55.90;;;;;;5077831;27;21108;-49
2022/05/30 05:24:10;;;;;;;0.70;0.70;;;17.60;55.90;;;;;;5115858;27;20572;-48
2022/05/30 05:27:12;;;;;;;1.03;0.90;;;17.60;56.00;;;;;;5079675;27;20531;-48
2022/05/30 05:29:56;;;;;;;1.13;0.60;;;17.60;56.00;;;;;;5109809;27;20764;-47
2022/05/30 05:32:37;;;;;;;0.80;0.70;;;17.60;55.90;;;;;;5081797;27;20523;-47
2022/05/30 05:35:23;;;;;;;1.53;0.70;;;17.60;56.00;;;;;;5065793;27;20556;-48
2022/05/30 05:38:07;;;;;;;1.40;0.80;;;17.60;55.90;;;;;;5110042;27;20546;-48
2022/05/30 05:41:09;;;;;;;0.77;0.73;;;17.60;56.00;;;;;;5081597;28;21104;-49
2022/05/30 05:44:11;;;;;;;1.10;1.00;;;17.50;56.00;;;;;;4989133;28;20580;-49
2022/05/30 05:46:52;;;;;;;1.17;0.80;;;17.50;55.90;;;;;;5122581;27;20513;-47
2022/05/30 05:49:33;;;;;;;3.77;0.87;;;17.50;55.90;;;;;;5112699;27;20565;-48
2022/05/30 05:52:15;;;;;;;1.93;0.80;;;17.50;57.20;;;;;;5073988;27;20654;-48
2022/05/30 05:54:58;;;;;;;1.00;0.70;;;17.50;56.00;;;;;;5068249;27;20574;-48
2022/05/30 05:57:39;;;;;;;1.07;0.80;;;17.50;56.10;;;;;;5114967;27;21054;-50
2022/05/30 06:00:20;;;;;;;1.23;1.00;;;17.50;56.00;;;;;;5075225;22;20622;-72
2022/05/30 06:03:04;;;;;;;1.03;0.93;;;17.50;56.10;;;;;;5081474;28;20585;-49
2022/05/30 06:06:07;;;;;;;1.80;0.57;;;17.50;57.30;;;;;;5080351;28;21111;-49
2022/05/30 06:09:03;;;;;;;1.20;0.80;;;17.50;56.00;;;;;;5102111;27;21018;-48
2022/05/30 06:12:00;;;;;;;2.30;0.70;;;17.50;56.00;;;;;;5081665;27;21184;-48
2022/05/30 06:14:42;;;;;;;2.03;0.97;;;17.50;56.00;;;;;;5050458;27;20574;-47
2022/05/30 06:17:22;;;;;;;3.03;0.87;;;17.50;56.00;;;;;;5121778;27;20569;-48
2022/05/30 06:20:04;;;;;;;0.67;0.60;;;17.50;56.00;;;;;;5085938;27;20548;-48
2022/05/30 06:22:45;;;;;;;1.57;1.43;;;17.50;56.00;;;;;;5100003;27;20968;-49
2022/05/30 06:26:07;;;;;;;1.10;0.90;;;17.40;56.00;;;;;;5080223;27;20527;-48
2022/05/30 06:29:02;;;;;;;1.57;0.93;;;17.40;56.00;;;;;;5057682;28;20554;-48
2022/05/30 06:31:45;;;;;;;0.80;0.80;;;17.50;56.00;;;;;;5080705;27;21822;-49
2022/05/30 06:34:26;;;;;;;1.10;0.60;;;17.40;55.90;;;;;;5101234;27;20536;-47
2022/05/30 06:37:08;;;;;;;1.00;0.70;;;17.50;56.10;;;;;;5058916;27;20594;-47
2022/05/30 06:39:53;;;;;;;1.43;1.00;;;17.40;55.90;;;;;;5079497;27;20581;-48
2022/05/30 06:42:45;;;;;;;0.90;0.60;;;17.40;55.90;;;;;;5075951;28;20532;-48
2022/05/30 06:45:38;;;;;;;1.20;0.73;;;17.40;56.00;;;;;;5104230;27;20605;-47
2022/05/30 06:48:38;;;;;;;1.80;0.83;;;17.40;56.60;;;;;;5108479;27;20939;-49
2022/05/30 06:51:45;;;;;;;0.97;0.90;;;17.40;56.00;;;;;;5075825;27;20895;-48
2022/05/30 06:54:27;;;;;;;1.20;0.80;;;17.40;55.90;;;;;;5099510;27;20545;-48
2022/05/30 07:00:10;;;;;;;0.77;0.70;;;17.40;55.90;;;;;;5070839;27;20538;-50
2022/05/30 07:03:11;;;;;;;1.10;0.93;;;17.40;56.00;;;;;;5121457;27;20523;-49
2022/05/30 07:06:12;;;;;;;1.77;1.10;;;17.40;56.00;;;;;;5100192;27;20547;-48
2022/05/30 07:09:15;;;;;;;1.40;0.97;;;17.40;56.00;;;;;;5083606;27;20537;-48
2022/05/30 07:12:16;;;;;;;1.77;0.90;;;17.30;55.90;;;;;;5081177;28;20942;-48
2022/05/30 07:14:57;;;;;;;1.70;1.20;;;17.30;56.10;;;;;;5088591;27;20555;-48
2022/05/30 07:17:39;;;;;;;0.93;0.83;;;17.30;55.90;;;;;;5122040;27;20579;-49
2022/05/30 07:20:20;;;;;;;0.80;0.80;;;17.30;55.90;;;;;;5059649;27;20584;-48
2022/05/30 07:23:20;;;;;;;0.83;0.60;;;17.30;55.90;;;;;;5075426;27;20600;-47
2022/05/30 07:26:22;;;;;;;1.03;0.80;;;17.30;55.90;;;;;;5100229;27;20855;-49
2022/05/30 07:29:22;;;;;;;1.00;0.80;;;17.30;55.90;;;;;;5070009;28;20607;-48
2022/05/30 07:32:21;;;;;;;1.73;0.80;;;17.30;55.90;;;;;;5101004;27;20591;-48
2022/05/30 07:35:20;;;;;;;0.90;0.70;;;17.30;55.90;;;;;;5085333;27;20605;-48
2022/05/30 07:38:39;;;;;;;1.10;0.87;;;17.30;55.90;;;;;;5104437;27;20579;-47
2022/05/30 07:41:39;;;;;;;1.40;0.80;;;17.30;56.00;;;;;;5080518;28;20519;-47
2022/05/30 07:44:39;;;;;;;1.37;0.87;;;17.30;56.00;;;;;;5083064;27;20586;-47
2022/05/30 07:47:39;;;;;;;1.03;0.90;;;17.30;56.00;;;;;;5076901;28;20533;-47
2022/05/30 07:50:31;;;;;;;1.10;0.80;;;17.30;56.00;;;;;;5105897;27;20551;-49
2022/05/30 07:53:28;;;;;;;2.20;1.30;;;17.30;56.00;;;;;;5137006;27;20542;-48
2022/05/30 07:56:40;;;;;;;1.10;0.70;;;17.30;56.10;;;;;;5082359;27;20508;-48
2022/05/30 08:00:18;;;;;;;1.33;1.00;;;17.30;56.10;;;;;;5048412;27;20584;-49
2022/05/30 08:03:15;;;;;;;1.00;0.90;;;17.20;55.90;;;;;;5146236;27;20624;-46
2022/05/30 08:06:07;;;;;;;1.60;1.20;;;17.20;56.00;;;;;;5019539;28;20531;-49
2022/05/30 08:09:06;;;;;;;1.10;1.00;;;17.30;56.10;;;;;;5065232;27;20540;-48
2022/05/30 08:11:59;;;;;;;1.40;1.00;;;17.20;56.10;;;;;;5120246;27;20582;-48
2022/05/30 08:15:00;;;;;;;1.73;1.00;;;17.20;56.10;;;;;;5085387;27;20924;-48
2022/05/30 08:18:04;;;;;;;2.30;1.10;;;17.20;56.10;;;;;;5079741;27;20820;-48
2022/05/30 08:20:45;;;;;;;1.80;1.03;;;17.20;56.10;;;;;;5102990;27;20575;-47
2022/05/30 08:23:27;;;;;;;1.30;1.07;;;17.20;56.10;;;;;;5079103;28;20560;-48
2022/05/30 08:26:13;;;;;;;1.33;1.00;;;17.20;56.10;;;;;;5080595;27;20504;-49
2022/05/30 08:29:13;;;;;;;3.23;1.20;;;17.20;56.20;;;;;;5059461;28;20546;-48
2022/05/30 08:31:54;;;;;;;2.60;1.60;;;17.20;56.20;;;;;;5122811;27;20530;-48
2022/05/30 08:34:59;;;;;;;1.60;1.20;;;17.20;56.20;;;;;;5109737;27;20542;-49
2022/05/30 08:37:41;;;;;;;3.17;2.00;;;17.20;56.20;;;;;;5063693;28;20542;-49
2022/05/30 08:43:32;;;;;;;1.60;1.00;;;17.20;56.20;;;;;;5099548;27;21074;-47
2022/05/30 08:46:37;;;;;;;2.30;2.07;;;17.20;56.10;;;;;;5077182;27;21106;-48
2022/05/30 08:49:23;;;;;;;2.73;1.70;;;17.20;56.20;;;;;;5064524;28;20914;-49
2022/05/30 08:52:41;;;;;;;2.90;2.00;;;17.20;56.30;;;;;;5099390;27;20530;-48
2022/05/30 08:55:29;;;;;;;1.33;1.23;;;17.20;56.40;;;;;;5065282;27;20595;-49
2022/05/30 08:58:33;;;;;;;1.87;1.60;;;17.10;56.20;;;;;;5072599;28;20544;-48
2022/05/30 09:01:20;;;;;;;1.70;1.40;;;17.10;56.30;;;;;;5081353;28;20520;-49
2022/05/30 09:04:29;;;;;;;3.00;2.17;;;17.10;56.20;;;;;;5073372;28;20948;-49
2022/05/30 09:07:14;;;;;;;5.43;3.80;;;17.10;56.30;;;;;;5111995;27;20569;-49
2022/05/30 09:10:01;;;;;;;2.70;2.10;;;17.10;55.90;;;;;;5111246;27;21007;-49
2022/05/30 09:12:49;;;;;;;2.10;1.97;;;17.10;56.10;;;;;;5077915;28;20577;-49
2022/05/30 09:15:50;;;;;;;2.03;1.87;;;17.10;56.30;;;;;;5084088;27;20982;-49
2022/05/30 09:18:38;;;;;;;2.63;2.23;;;17.10;56.40;;;;;;5091087;27;21504;-47
2022/05/30 09:21:21;;;;;;;1.60;1.50;;;17.10;56.30;;;;;;5118049;27;20951;-49
2022/05/30 09:24:06;;;;;;;3.67;2.27;;;17.10;56.40;;;;;;5117815;27;20602;-48
2022/05/30 09:26:47;;;;;;;3.63;2.10;;;17.10;56.20;;;;;;5082719;28;20503;-49
2022/05/30 09:29:37;;;;;;;1.90;1.70;;;17.10;56.20;;;;;;5072301;27;20548;-48
2022/05/30 09:32:45;;;;;;;2.40;1.70;;;17.10;56.30;;;;;;5122784;27;20570;-48
2022/05/30 09:35:45;;;;;;;1.63;1.50;;;17.10;56.30;;;;;;5062698;27;20586;-47
2022/05/30 09:39:04;;;;;;;3.37;2.50;;;17.10;56.30;;;;;;5086157;27;20553;-48
2022/05/30 09:41:57;;;;;;;4.27;3.87;;;17.10;56.30;;;;;;5081626;27;21206;-47
2022/05/30 09:44:42;;;;;;;3.47;2.70;;;17.10;55.90;;;;;;5062981;27;21404;-48
2022/05/30 09:48:00;;;;;;;3.20;2.47;;;17.10;56.00;;;;;;5091410;27;20590;-48
2022/05/30 09:50:56;;;;;;;2.10;1.90;;;17.10;56.30;;;;;;5062468;27;21079;-48
2022/05/30 09:53:49;;;;;;;4.40;2.40;;;17.10;56.40;;;;;;5138907;27;20622;-46
2022/05/30 09:56:38;;;;;;;3.87;3.47;;;17.10;56.40;;;;;;5082310;28;20499;-48
2022/05/30 09:59:32;;;;;;;6.03;2.80;;;17.10;56.50;;;;;;5072443;27;20537;-48
2022/05/30 10:02:24;;;;;;;5.47;3.33;;;17.10;56.20;;;;;;5102422;27;20572;-48
2022/05/30 10:05:22;;;;;;;2.90;2.27;;;17.10;55.80;;;;;;5065545;27;20546;-48
2022/05/30 10:08:05;;;;;;;2.63;2.00;;;17.10;56.10;;;;;;5116479;27;20550;-49
2022/05/30 10:11:10;;;;;;;1.93;1.83;;;17.00;56.20;;;;;;5081807;28;20546;-47
2022/05/30 10:13:56;;;;;;;2.73;1.87;;;17.00;56.20;;;;;;5077234;28;20549;-48
2022/05/30 10:17:14;;;;;;;2.50;1.77;;;17.00;56.10;;;;;;5121594;27;20562;-48
2022/05/30 10:19:56;;;;;;;2.50;2.30;;;17.00;55.50;;;;;;5070728;27;20986;-48
2022/05/30 10:30:53;;;;;;;3.30;2.87;;;17.00;55.40;;;;;;5064615;27;20540;-49
2022/05/30 10:34:20;;;;;;;2.17;1.97;;;17.00;55.60;;;;;;5096354;27;20518;-48
2022/05/30 10:37:21;;;;;;;2.30;2.10;;;17.10;55.40;;;;;;5117249;27;20534;-48
2022/05/30 10:40:23;;;;;;;2.27;2.00;;;17.00;54.10;;;;;;5109703;27;20601;-48
2022/05/30 10:43:11;;;;;;;2.70;1.70;;;17.00;54.30;;;;;;5075281;28;20541;-49
2022/05/30 10:45:57;;;;;;;1.80;1.57;;;17.10;54.60;;;;;;5061511;28;20610;-48
2022/05/30 10:48:40;;;;;;;1.53;1.43;;;17.00;55.40;;;;;;5081340;28;20581;-49
2022/05/30 10:51:24;;;;;;;1.63;1.50;;;17.00;55.10;;;;;;5070040;27;21042;-49
2022/05/30 10:54:18;;;;;;;4.90;2.30;;;17.10;54.60;;;;;;5073382;27;20583;-48
2022/05/30 10:57:11;;;;;;;3.20;2.30;;;17.10;55.30;;;;;;5120533;27;20590;-49
2022/05/30 10:59:56;;;;;;;2.20;1.73;;;17.10;55.40;;;;;;5086047;27;20590;-48
2022/05/30 11:02:52;;;;;;;1.60;1.50;;;17.10;55.20;;;;;;5081280;28;20523;-48
2022/05/30 11:05:41;;;;;;;1.93;1.73;;;17.10;55.40;;;;;;5067467;27;20611;-49
2022/05/30 11:08:35;;;;;;;1.30;1.20;;;17.10;55.60;;;;;;5074676;27;20702;-49
2022/05/30 11:11:21;;;;;;;1.90;1.80;;;17.10;55.60;;;;;;5078134;27;20515;-48
2022/05/30 11:14:21;;;;;;;1.70;1.60;;;17.00;55.60;;;;;;5000685;28;20548;-48
2022/05/30 11:17:18;;;;;;;1.90;1.67;;;17.10;55.40;;;;;;5113407;27;20592;-48
2022/05/30 11:20:36;;;;;;;2.30;1.30;;;17.10;55.70;;;;;;5049186;27;20549;-49
2022/05/30 11:23:19;;;;;;;2.27;1.90;;;17.10;55.40;;;;;;5075354;27;20585;-49
2022/05/30 11:26:34;;;;;;;1.47;1.37;;;17.00;55.10;;;;;;5061433;27;20622;-49
2022/05/30 11:29:29;;;;;;;1.77;1.67;;;17.00;55.60;;;;;;5061109;28;20604;-48
2022/05/30 11:32:25;;;;;;;1.73;1.63;;;17.00;55.10;;;;;;5078538;27;20565;-48
2022/05/30 11:35:17;;;;;;;2.23;1.63;;;17.00;55.20;;;;;;5086540;27;20947;-48
2022/05/30 11:38:19;;;;;;;2.10;1.60;;;17.00;55.60;;;;;;5072563;27;20544;-48
2022/05/30 11:41:15;;;;;;;2.27;2.07;;;17.00;55.80;;;;;;5082313;27;21244;-48
2022/05/30 11:44:19;;;;;;;1.63;1.53;;;17.00;55.80;;;;;;5069393;28;20536;-47
2022/05/30 11:47:11;;;;;;;4.70;1.50;;;17.00;55.70;;;;;;5082304;28;20570;-47
2022/05/30 11:50:03;;;;;;;2.03;1.73;;;17.00;55.90;;;;;;5065028;27;20529;-49
2022/05/30 11:53:22;;;;;;;1.83;1.73;;;17.00;55.80;;;;;;5028212;28;20493;-46
2022/05/30 11:56:17;;;;;;;2.30;2.10;;;17.00;55.80;;;;;;5023975;28;20455;-47
2022/05/30 11:59:27;;;;;;;1.93;1.70;;;17.00;55.60;;;;;;5067199;27;20621;-48
2022/05/30 12:02:13;;;;;;;2.03;1.70;;;17.10;55.80;;;;;;5102032;27;20533;-45
2022/05/30 12:05:24;;;;;;;1.70;1.60;;;17.00;55.70;;;;;;5081603;22;20607;-72
2022/05/30 12:08:29;;;;;;;1.70;1.60;;;17.00;55.70;;;;;;5108374;27;20555;-48
2022/05/30 12:11:34;;;;;;;1.43;1.33;;;17.00;55.80;;;;;;5080527;28;20577;-48
2022/05/30 12:14:43;;;;;;;1.90;1.80;;;17.00;55.60;;;;;;5099446;27;20565;-48
2022/05/30 12:23:47;;;;;;;1.73;1.63;;;17.00;55.90;;;;;;5077729;27;20608;-50
2022/05/30 12:24:23;;;;;;;4.13;2.00;;;17.00;55.30;;;;;;5074186;28;21066;-51
2022/05/30 12:27:09;;;;;;;1.97;1.80;;;17.10;54.40;;;;;;5080317;28;20610;-47
2022/05/30 12:29:51;;;;;;;3.67;2.63;;;17.00;54.50;;;;;;5084334;27;21138;-48
2022/05/30 12:32:44;;;;;;;2.30;1.87;;;17.00;54.40;;;;;;5081247;28;20565;-49
2022/05/30 12:35:28;;;;;;;1.70;1.33;;;17.00;55.20;;;;;;5074919;27;20996;-48
2022/05/30 12:38:18;;;;;;;1.67;1.57;;;17.10;55.50;;;;;;5079356;28;20942;-49
2022/05/30 12:41:20;;;;;;;2.27;1.70;;;17.00;55.60;;;;;;5043483;27;20583;-48
2022/05/30 12:44:02;;;;;;;1.47;1.37;;;17.00;55.50;;;;;;5063713;27;20529;-49
2022/05/30 12:46:53;;;;;;;1.80;1.70;;;17.00;55.10;;;;;;5121066;27;21247;-50
2022/05/30 12:49:36;;;;;;;2.53;1.90;;;17.00;55.10;;;;;;5079641;27;21123;-47
2022/05/30 12:52:20;;;;;;;1.23;1.13;;;17.00;55.40;;;;;;5078195;27;21046;-48
2022/05/30 12:55:12;;;;;;;1.67;1.57;;;17.00;55.40;;;;;;5087901;27;21076;-49
2022/05/30 12:57:53;;;;;;;1.67;1.50;;;17.10;55.50;;;;;;5078531;27;20645;-50
2022/05/30 13:00:55;;;;;;;2.00;1.63;;;17.10;55.60;;;;;;5084293;27;20548;-47
2022/05/30 13:03:39;;;;;;;1.63;1.53;;;17.00;55.70;;;;;;5081063;28;20528;-48
2022/05/30 13:06:25;;;;;;;1.90;1.80;;;17.10;55.60;;;;;;5074955;27;20626;-49
2022/05/30 13:09:20;;;;;;;1.40;1.30;;;17.10;55.80;;;;;;5112412;27;20529;-46
2022/05/30 13:12:24;;;;;;;2.20;1.80;;;17.00;55.50;;;;;;5121883;27;20539;-46
2022/05/30 13:15:35;;;;;;;2.27;1.70;;;17.10;55.70;;;;;;5059423;27;20604;-49
2022/05/30 13:18:20;;;;;;;1.47;1.37;;;17.10;55.30;;;;;;5122492;27;20537;-48
2022/05/30 13:21:04;;;;;;;1.80;1.70;;;17.10;55.60;;;;;;5061197;27;20549;-48
2022/05/30 13:23:43;;;;;;;1.53;1.43;;;17.10;55.60;;;;;;5077758;28;20600;-48
2022/05/30 13:26:25;;;;;;;2.10;1.83;;;17.10;55.80;;;;;;5120493;27;20565;-45
2022/05/30 13:29:08;;;;;;;1.83;1.73;;;17.10;55.50;;;;;;5091137;27;21025;-48
2022/05/30 13:31:53;;;;;;;1.70;1.60;;;17.10;55.60;;;;;;5101276;27;20530;-48
2022/05/30 13:34:34;;;;;;;2.03;1.57;;;17.10;55.70;;;;;;5100356;27;21060;-48
2022/05/30 13:37:24;;;;;;;1.27;1.17;;;17.10;55.80;;;;;;5070971;27;20548;-50
2022/05/30 13:40:10;;;;;;;1.63;1.43;;;17.10;55.90;;;;;;5067836;27;20542;-48
2022/05/30 13:42:54;;;;;;;1.80;1.57;;;17.10;55.90;;;;;;5077052;28;20529;-48
2022/05/30 13:45:57;;;;;;;1.43;1.30;;;17.10;55.90;;;;;;5063043;27;20537;-48
2022/05/30 13:48:41;;;;;;;1.43;1.33;;;17.10;56.00;;;;;;5072204;28;20579;-47
2022/05/30 13:51:26;;;;;;;2.00;1.90;;;17.10;56.00;;;;;;5060857;27;20521;-48
2022/05/30 13:54:10;;;;;;;1.80;1.60;;;17.10;55.90;;;;;;5051352;28;20599;-47
2022/05/30 13:56:54;;;;;;;3.60;1.53;;;17.10;56.10;;;;;;5121495;27;20918;-50
2022/05/30 13:59:37;;;;;;;1.47;1.37;;;17.10;55.70;;;;;;5095924;27;20607;-47
2022/05/30 14:02:44;;;;;;;2.30;2.10;;;17.10;55.80;;;;;;5080824;28;20575;-48
2022/05/30 14:05:38;;;;;;;2.03;1.83;;;17.10;55.70;;;;;;5065626;27;20544;-47
2022/05/30 14:08:25;;;;;;;1.70;1.60;;;17.10;55.90;;;;;;5060648;28;21145;-48
2022/05/30 14:11:08;;;;;;;1.90;1.60;;;17.10;55.50;;;;;;5062185;27;20548;-47
2022/05/30 14:13:55;;;;;;;1.50;1.33;;;17.10;55.40;;;;;;5117399;27;21075;-50
2022/05/30 14:16:41;;;;;;;2.67;2.13;;;17.10;55.90;;;;;;5121957;27;20574;-48
2022/05/30 14:19:27;;;;;;;2.40;1.83;;;17.10;54.60;;;;;;5072659;28;20639;-47
2022/05/30 14:22:17;;;;;;;1.67;1.57;;;17.10;54.30;;;;;;5123161;27;20517;-49
2022/05/30 14:25:02;;;;;;;1.67;1.57;;;17.10;55.30;;;;;;5089424;27;20576;-49
2022/05/30 14:27:50;;;;;;;1.97;1.80;;;17.10;55.40;;;;;;5077645;28;21114;-47
2022/05/30 14:30:34;;;;;;;2.53;2.30;;;17.10;55.60;;;;;;5076076;27;20574;-48
2022/05/30 14:33:29;;;;;;;2.50;1.73;;;17.10;55.30;;;;;;5099972;27;20528;-49
2022/05/30 14:36:27;;;;;;;1.43;1.33;;;17.10;54.50;;;;;;5117339;27;20621;-49
2022/05/30 14:39:20;;;;;;;2.13;1.93;;;17.10;54.80;;;;;;5077934;27;20604;-47
2022/05/30 14:42:03;;;;;;;3.60;2.20;;;17.10;54.90;;;;;;5101457;27;20572;-47
2022/05/30 14:45:08;;;;;;;2.43;2.23;;;17.10;53.80;;;;;;5088232;27;20765;-48
2022/05/30 14:47:49;;;;;;;1.83;1.73;;;17.10;54.60;;;;;;5110772;27;20608;-49
2022/05/30 14:50:36;;;;;;;1.90;1.80;;;17.10;54.80;;;;;;5102500;27;20573;-48
2022/05/30 14:53:22;;;;;;;1.60;1.50;;;17.10;54.90;;;;;;5076766;27;20512;-45
2022/05/30 14:56:19;;;;;;;2.58;1.80;;;17.10;55.40;;;;;;5098219;27;20438;-48
2022/05/30 14:59:04;;;;;;;2.17;1.97;;;17.20;55.90;;;;;;5075583;27;20937;-47
2022/05/30 15:01:55;;;;;;;1.87;1.77;;;17.20;54.80;;;;;;5121632;27;20985;-48
2022/05/30 15:04:37;;;;;;;3.17;1.50;;;17.20;54.10;;;;;;5113790;27;20542;-47
2022/05/30 15:07:27;;;;;;;1.53;1.43;;;17.20;54.80;;;;;;5060656;27;20613;-48
2022/05/30 15:10:10;;;;;;;1.67;1.57;;;17.20;55.20;;;;;;5087000;27;21068;-48
2022/05/30 15:12:50;;;;;;;2.37;1.67;;;17.20;54.80;;;;;;5117893;27;20604;-46